sensor_id;sensor_type;location;lat;lon;timestamp;P1;durP1;ratioP1;P2;durP2;ratioP2
67721;SDS011;58309;45.292;11.820;2023-03-09T00:01:36;27.38;;;16.90;;
67721;SDS011;58309;45.292;11.820;2023-03-09T00:04:02;25.50;;;16.40;;
67721;SDS011;58309;45.292;11.820;2023-03-09T00:06:28;29.02;;;17.52;;
67721;SDS011;58309;45.292;11.820;2023-03-09T00:08:54;24.40;;;16.58;;
67721;SDS011;58309;45.292;11.820;2023-03-09T00:11:20;28.65;;;16.42;;
67721;SDS011;58309;45.292;11.820;2023-03-09T00:13:47;22.33;;;15.98;;
67721;SDS011;58309;45.292;11.820;2023-03-09T00:16:21;29.15;;;16.75;;
67721;SDS011;58309;45.292;11.820;2023-03-09T00:18:48;24.30;;;16.20;;
67721;SDS011;58309;45.292;11.820;2023-03-09T00:21:16;25.33;;;16.92;;
67721;SDS011;58309;45.292;11.820;2023-03-09T00:24:09;26.98;;;16.27;;
67721;SDS011;58309;45.292;11.820;2023-03-09T00:26:37;25.23;;;16.90;;
67721;SDS011;58309;45.292;11.820;2023-03-09T00:29:05;24.33;;;15.82;;
67721;SDS011;58309;45.292;11.820;2023-03-09T00:31:32;27.27;;;16.70;;
67721;SDS011;58309;45.292;11.820;2023-03-09T00:33:58;25.73;;;16.70;;
67721;SDS011;58309;45.292;11.820;2023-03-09T00:36:23;26.15;;;16.50;;
67721;SDS011;58309;45.292;11.820;2023-03-09T00:38:53;26.27;;;16.92;;
67721;SDS011;58309;45.292;11.820;2023-03-09T00:41:20;22.95;;;15.98;;
67721;SDS011;58309;45.292;11.820;2023-03-09T00:43:47;28.88;;;17.40;;
67721;SDS011;58309;45.292;11.820;2023-03-09T00:46:13;27.40;;;17.95;;
67721;SDS011;58309;45.292;11.820;2023-03-09T00:48:39;27.55;;;16.83;;
67721;SDS011;58309;45.292;11.820;2023-03-09T00:51:06;25.20;;;17.38;;
67721;SDS011;58309;45.292;11.820;2023-03-09T00:53:33;24.02;;;16.88;;
67721;SDS011;58309;45.292;11.820;2023-03-09T00:56:02;25.33;;;17.10;;
67721;SDS011;58309;45.292;11.820;2023-03-09T00:58:29;26.38;;;17.10;;
67721;SDS011;58309;45.292;11.820;2023-03-09T01:00:55;29.55;;;17.55;;
67721;SDS011;58309;45.292;11.820;2023-03-09T01:03:21;30.73;;;18.27;;
67721;SDS011;58309;45.292;11.820;2023-03-09T01:05:46;28.88;;;17.33;;
67721;SDS011;58309;45.292;11.820;2023-03-09T01:08:12;25.40;;;16.88;;
67721;SDS011;58309;45.292;11.820;2023-03-09T01:10:38;25.80;;;16.77;;
67721;SDS011;58309;45.292;11.820;2023-03-09T01:13:05;26.67;;;17.15;;
67721;SDS011;58309;45.292;11.820;2023-03-09T01:15:31;27.77;;;16.75;;
67721;SDS011;58309;45.292;11.820;2023-03-09T01:17:56;27.02;;;17.05;;
67721;SDS011;58309;45.292;11.820;2023-03-09T01:20:22;26.98;;;16.08;;
67721;SDS011;58309;45.292;11.820;2023-03-09T01:22:48;24.88;;;15.57;;
67721;SDS011;58309;45.292;11.820;2023-03-09T01:25:14;28.60;;;17.13;;
67721;SDS011;58309;45.292;11.820;2023-03-09T01:27:39;29.17;;;16.50;;
67721;SDS011;58309;45.292;11.820;2023-03-09T01:30:05;24.92;;;15.55;;
67721;SDS011;58309;45.292;11.820;2023-03-09T01:32:31;24.30;;;15.93;;
67721;SDS011;58309;45.292;11.820;2023-03-09T01:34:57;23.90;;;14.73;;
67721;SDS011;58309;45.292;11.820;2023-03-09T01:37:23;28.63;;;15.93;;
67721;SDS011;58309;45.292;11.820;2023-03-09T01:39:48;22.60;;;15.05;;
67721;SDS011;58309;45.292;11.820;2023-03-09T01:42:14;27.10;;;17.13;;
67721;SDS011;58309;45.292;11.820;2023-03-09T01:44:40;28.25;;;17.48;;
67721;SDS011;58309;45.292;11.820;2023-03-09T01:47:05;28.60;;;18.00;;
67721;SDS011;58309;45.292;11.820;2023-03-09T01:49:32;30.23;;;18.60;;
67721;SDS011;58309;45.292;11.820;2023-03-09T01:57:27;24.67;;;15.80;;
67721;SDS011;58309;45.292;11.820;2023-03-09T02:00:15;26.08;;;16.25;;
67721;SDS011;58309;45.292;11.820;2023-03-09T02:02:48;22.80;;;15.23;;
67721;SDS011;58309;45.292;11.820;2023-03-09T02:05:23;25.30;;;16.48;;
67721;SDS011;58309;45.292;11.820;2023-03-09T02:07:55;26.08;;;16.13;;
67721;SDS011;58309;45.292;11.820;2023-03-09T02:13:04;29.10;;;17.55;;
67721;SDS011;58309;45.292;11.820;2023-03-09T02:15:33;24.55;;;16.27;;
67721;SDS011;58309;45.292;11.820;2023-03-09T02:17:59;22.98;;;15.98;;
67721;SDS011;58309;45.292;11.820;2023-03-09T02:23:00;26.83;;;16.52;;
67721;SDS011;58309;45.292;11.820;2023-03-09T02:25:32;27.48;;;17.48;;
67721;SDS011;58309;45.292;11.820;2023-03-09T02:28:03;25.50;;;15.85;;
67721;SDS011;58309;45.292;11.820;2023-03-09T02:30:31;24.80;;;15.98;;
67721;SDS011;58309;45.292;11.820;2023-03-09T02:35:34;24.85;;;16.25;;
67721;SDS011;58309;45.292;11.820;2023-03-09T02:37:59;26.52;;;16.98;;
67721;SDS011;58309;45.292;11.820;2023-03-09T02:40:32;27.13;;;16.63;;
67721;SDS011;58309;45.292;11.820;2023-03-09T02:43:00;27.23;;;15.90;;
67721;SDS011;58309;45.292;11.820;2023-03-09T02:45:28;23.67;;;15.55;;
67721;SDS011;58309;45.292;11.820;2023-03-09T02:47:55;27.45;;;16.88;;
67721;SDS011;58309;45.292;11.820;2023-03-09T02:50:22;33.00;;;21.73;;
67721;SDS011;58309;45.292;11.820;2023-03-09T02:52:48;38.75;;;24.58;;
67721;SDS011;58309;45.292;11.820;2023-03-09T02:55:14;42.67;;;26.33;;
67721;SDS011;58309;45.292;11.820;2023-03-09T02:57:40;43.30;;;27.45;;
67721;SDS011;58309;45.292;11.820;2023-03-09T03:00:07;45.03;;;28.60;;
67721;SDS011;58309;45.292;11.820;2023-03-09T03:02:34;45.13;;;29.65;;
67721;SDS011;58309;45.292;11.820;2023-03-09T03:05:00;49.58;;;30.23;;
67721;SDS011;58309;45.292;11.820;2023-03-09T03:07:26;45.05;;;29.45;;
67721;SDS011;58309;45.292;11.820;2023-03-09T03:09:51;43.55;;;29.63;;
67721;SDS011;58309;45.292;11.820;2023-03-09T03:12:17;48.25;;;30.42;;
67721;SDS011;58309;45.292;11.820;2023-03-09T03:14:43;46.78;;;30.10;;
67721;SDS011;58309;45.292;11.820;2023-03-09T03:17:09;49.17;;;29.73;;
67721;SDS011;58309;45.292;11.820;2023-03-09T03:19:35;47.05;;;30.50;;
67721;SDS011;58309;45.292;11.820;2023-03-09T03:22:00;44.83;;;30.40;;
67721;SDS011;58309;45.292;11.820;2023-03-09T03:24:26;48.45;;;31.10;;
67721;SDS011;58309;45.292;11.820;2023-03-09T03:26:51;46.90;;;30.90;;
67721;SDS011;58309;45.292;11.820;2023-03-09T03:29:17;45.78;;;30.38;;
67721;SDS011;58309;45.292;11.820;2023-03-09T03:31:42;48.72;;;30.88;;
67721;SDS011;58309;45.292;11.820;2023-03-09T03:34:08;50.03;;;31.88;;
67721;SDS011;58309;45.292;11.820;2023-03-09T03:36:34;45.90;;;29.55;;
67721;SDS011;58309;45.292;11.820;2023-03-09T03:38:59;52.72;;;30.23;;
67721;SDS011;58309;45.292;11.820;2023-03-09T03:41:25;43.75;;;30.02;;
67721;SDS011;58309;45.292;11.820;2023-03-09T03:43:50;48.28;;;30.40;;
67721;SDS011;58309;45.292;11.820;2023-03-09T03:46:16;42.67;;;29.52;;
67721;SDS011;58309;45.292;11.820;2023-03-09T03:48:41;47.83;;;30.15;;
67721;SDS011;58309;45.292;11.820;2023-03-09T03:51:08;42.80;;;29.60;;
67721;SDS011;58309;45.292;11.820;2023-03-09T03:53:33;44.55;;;29.10;;
67721;SDS011;58309;45.292;11.820;2023-03-09T03:55:59;40.65;;;28.45;;
67721;SDS011;58309;45.292;11.820;2023-03-09T03:58:25;44.17;;;29.65;;
67721;SDS011;58309;45.292;11.820;2023-03-09T04:00:51;47.17;;;29.83;;
67721;SDS011;58309;45.292;11.820;2023-03-09T04:03:16;45.78;;;29.58;;
67721;SDS011;58309;45.292;11.820;2023-03-09T04:05:42;48.17;;;31.35;;
67721;SDS011;58309;45.292;11.820;2023-03-09T04:08:08;42.67;;;27.88;;
67721;SDS011;58309;45.292;11.820;2023-03-09T04:10:33;46.85;;;29.45;;
67721;SDS011;58309;45.292;11.820;2023-03-09T04:13:02;48.22;;;30.00;;
67721;SDS011;58309;45.292;11.820;2023-03-09T04:15:27;43.35;;;29.25;;
67721;SDS011;58309;45.292;11.820;2023-03-09T04:17:53;45.15;;;28.25;;
67721;SDS011;58309;45.292;11.820;2023-03-09T04:20:18;43.13;;;29.42;;
67721;SDS011;58309;45.292;11.820;2023-03-09T04:22:44;47.75;;;29.00;;
67721;SDS011;58309;45.292;11.820;2023-03-09T04:25:09;42.67;;;28.75;;
67721;SDS011;58309;45.292;11.820;2023-03-09T04:27:35;44.63;;;28.13;;
67721;SDS011;58309;45.292;11.820;2023-03-09T04:30:00;43.70;;;28.83;;
67721;SDS011;58309;45.292;11.820;2023-03-09T04:32:26;45.70;;;28.05;;
67721;SDS011;58309;45.292;11.820;2023-03-09T04:34:51;45.65;;;28.70;;
67721;SDS011;58309;45.292;11.820;2023-03-09T04:37:17;43.58;;;28.50;;
67721;SDS011;58309;45.292;11.820;2023-03-09T04:39:43;43.70;;;28.02;;
67721;SDS011;58309;45.292;11.820;2023-03-09T04:42:08;44.67;;;29.98;;
67721;SDS011;58309;45.292;11.820;2023-03-09T04:44:34;45.47;;;27.75;;
67721;SDS011;58309;45.292;11.820;2023-03-09T04:46:59;43.25;;;27.17;;
67721;SDS011;58309;45.292;11.820;2023-03-09T04:49:25;42.67;;;27.20;;
67721;SDS011;58309;45.292;11.820;2023-03-09T04:51:51;40.67;;;27.48;;
67721;SDS011;58309;45.292;11.820;2023-03-09T04:54:17;41.45;;;28.80;;
67721;SDS011;58309;45.292;11.820;2023-03-09T04:56:42;43.95;;;28.08;;
67721;SDS011;58309;45.292;11.820;2023-03-09T04:59:08;40.88;;;28.65;;
67721;SDS011;58309;45.292;11.820;2023-03-09T05:01:33;46.80;;;28.35;;
67721;SDS011;58309;45.292;11.820;2023-03-09T05:03:59;45.55;;;30.23;;
67721;SDS011;58309;45.292;11.820;2023-03-09T05:06:24;47.78;;;30.08;;
67721;SDS011;58309;45.292;11.820;2023-03-09T05:08:50;51.50;;;30.23;;
67721;SDS011;58309;45.292;11.820;2023-03-09T05:11:15;43.70;;;29.27;;
67721;SDS011;58309;45.292;11.820;2023-03-09T05:13:41;44.67;;;28.33;;
67721;SDS011;58309;45.292;11.820;2023-03-09T05:16:06;48.10;;;29.58;;
67721;SDS011;58309;45.292;11.820;2023-03-09T05:18:33;49.03;;;29.40;;
67721;SDS011;58309;45.292;11.820;2023-03-09T05:21:03;42.88;;;28.40;;
67721;SDS011;58309;45.292;11.820;2023-03-09T05:23:29;39.45;;;28.10;;
67721;SDS011;58309;45.292;11.820;2023-03-09T05:25:56;42.30;;;28.55;;
67721;SDS011;58309;45.292;11.820;2023-03-09T05:28:22;45.38;;;29.27;;
67721;SDS011;58309;45.292;11.820;2023-03-09T05:30:49;46.00;;;30.30;;
67721;SDS011;58309;45.292;11.820;2023-03-09T05:33:15;47.10;;;28.58;;
67721;SDS011;58309;45.292;11.820;2023-03-09T05:35:41;49.03;;;29.65;;
67721;SDS011;58309;45.292;11.820;2023-03-09T05:38:07;41.63;;;27.63;;
67721;SDS011;58309;45.292;11.820;2023-03-09T05:40:32;48.65;;;29.38;;
67721;SDS011;58309;45.292;11.820;2023-03-09T05:42:59;49.28;;;31.40;;
67721;SDS011;58309;45.292;11.820;2023-03-09T05:45:24;60.22;;;37.45;;
67721;SDS011;58309;45.292;11.820;2023-03-09T05:47:50;56.25;;;37.25;;
67721;SDS011;58309;45.292;11.820;2023-03-09T05:50:15;47.00;;;31.77;;
67721;SDS011;58309;45.292;11.820;2023-03-09T05:52:41;52.65;;;32.72;;
67721;SDS011;58309;45.292;11.820;2023-03-09T05:55:07;46.63;;;31.38;;
67721;SDS011;58309;45.292;11.820;2023-03-09T05:57:33;45.20;;;29.92;;
67721;SDS011;58309;45.292;11.820;2023-03-09T05:59:58;44.45;;;30.55;;
67721;SDS011;58309;45.292;11.820;2023-03-09T06:02:24;45.50;;;30.67;;
67721;SDS011;58309;45.292;11.820;2023-03-09T06:04:50;46.72;;;29.70;;
67721;SDS011;58309;45.292;11.820;2023-03-09T06:07:16;45.15;;;29.85;;
67721;SDS011;58309;45.292;11.820;2023-03-09T06:09:41;44.22;;;29.35;;
67721;SDS011;58309;45.292;11.820;2023-03-09T06:12:07;46.85;;;28.65;;
67721;SDS011;58309;45.292;11.820;2023-03-09T06:14:32;46.00;;;30.02;;
67721;SDS011;58309;45.292;11.820;2023-03-09T06:16:58;42.05;;;29.77;;
67721;SDS011;58309;45.292;11.820;2023-03-09T06:19:24;52.05;;;30.63;;
67721;SDS011;58309;45.292;11.820;2023-03-09T06:21:50;47.38;;;30.98;;
67721;SDS011;58309;45.292;11.820;2023-03-09T06:24:15;50.58;;;31.83;;
67721;SDS011;58309;45.292;11.820;2023-03-09T06:26:41;49.10;;;30.90;;
67721;SDS011;58309;45.292;11.820;2023-03-09T06:29:08;46.50;;;31.50;;
67721;SDS011;58309;45.292;11.820;2023-03-09T06:31:34;49.65;;;29.95;;
67721;SDS011;58309;45.292;11.820;2023-03-09T06:33:59;51.88;;;29.90;;
67721;SDS011;58309;45.292;11.820;2023-03-09T06:36:25;45.17;;;29.75;;
67721;SDS011;58309;45.292;11.820;2023-03-09T06:38:50;43.97;;;28.77;;
67721;SDS011;58309;45.292;11.820;2023-03-09T06:41:16;45.65;;;28.60;;
67721;SDS011;58309;45.292;11.820;2023-03-09T06:43:42;46.05;;;28.52;;
67721;SDS011;58309;45.292;11.820;2023-03-09T06:46:10;47.67;;;28.70;;
67721;SDS011;58309;45.292;11.820;2023-03-09T06:48:35;42.58;;;27.77;;
67721;SDS011;58309;45.292;11.820;2023-03-09T06:51:01;46.13;;;28.30;;
67721;SDS011;58309;45.292;11.820;2023-03-09T06:53:27;47.03;;;28.48;;
67721;SDS011;58309;45.292;11.820;2023-03-09T06:55:53;45.22;;;26.60;;
67721;SDS011;58309;45.292;11.820;2023-03-09T06:58:18;45.03;;;27.45;;
67721;SDS011;58309;45.292;11.820;2023-03-09T07:00:44;43.95;;;27.17;;
67721;SDS011;58309;45.292;11.820;2023-03-09T07:03:16;41.95;;;28.33;;
67721;SDS011;58309;45.292;11.820;2023-03-09T07:05:43;45.88;;;27.90;;
67721;SDS011;58309;45.292;11.820;2023-03-09T07:08:09;41.55;;;28.95;;
67721;SDS011;58309;45.292;11.820;2023-03-09T07:10:35;49.47;;;29.23;;
67721;SDS011;58309;45.292;11.820;2023-03-09T07:13:00;44.15;;;28.40;;
67721;SDS011;58309;45.292;11.820;2023-03-09T07:15:26;50.25;;;28.45;;
67721;SDS011;58309;45.292;11.820;2023-03-09T07:17:51;45.72;;;29.50;;
67721;SDS011;58309;45.292;11.820;2023-03-09T07:20:17;38.95;;;26.00;;
67721;SDS011;58309;45.292;11.820;2023-03-09T07:22:42;39.10;;;26.50;;
67721;SDS011;58309;45.292;11.820;2023-03-09T07:25:08;43.67;;;26.92;;
67721;SDS011;58309;45.292;11.820;2023-03-09T07:27:34;38.10;;;25.02;;
67721;SDS011;58309;45.292;11.820;2023-03-09T07:29:59;40.08;;;26.48;;
67721;SDS011;58309;45.292;11.820;2023-03-09T07:32:25;39.65;;;25.90;;
67721;SDS011;58309;45.292;11.820;2023-03-09T07:34:50;37.72;;;26.08;;
67721;SDS011;58309;45.292;11.820;2023-03-09T07:37:16;39.38;;;26.73;;
67721;SDS011;58309;45.292;11.820;2023-03-09T07:39:41;40.10;;;26.30;;
67721;SDS011;58309;45.292;11.820;2023-03-09T07:42:07;39.65;;;26.88;;
67721;SDS011;58309;45.292;11.820;2023-03-09T07:44:33;44.63;;;27.05;;
67721;SDS011;58309;45.292;11.820;2023-03-09T07:46:58;40.28;;;24.73;;
67721;SDS011;58309;45.292;11.820;2023-03-09T07:49:24;39.70;;;25.85;;
67721;SDS011;58309;45.292;11.820;2023-03-09T07:51:49;39.25;;;25.13;;
67721;SDS011;58309;45.292;11.820;2023-03-09T07:54:15;35.08;;;24.10;;
67721;SDS011;58309;45.292;11.820;2023-03-09T07:56:41;38.47;;;25.15;;
67721;SDS011;58309;45.292;11.820;2023-03-09T07:59:12;39.10;;;24.60;;
67721;SDS011;58309;45.292;11.820;2023-03-09T08:01:39;33.97;;;23.58;;
67721;SDS011;58309;45.292;11.820;2023-03-09T08:04:05;34.10;;;22.35;;
67721;SDS011;58309;45.292;11.820;2023-03-09T08:06:30;36.75;;;22.30;;
67721;SDS011;58309;45.292;11.820;2023-03-09T08:08:56;38.13;;;22.67;;
67721;SDS011;58309;45.292;11.820;2023-03-09T08:11:21;32.63;;;20.88;;
67721;SDS011;58309;45.292;11.820;2023-03-09T08:13:48;35.47;;;21.25;;
67721;SDS011;58309;45.292;11.820;2023-03-09T08:16:13;31.65;;;21.70;;
67721;SDS011;58309;45.292;11.820;2023-03-09T08:18:39;32.95;;;23.00;;
67721;SDS011;58309;45.292;11.820;2023-03-09T08:21:09;32.25;;;21.70;;
67721;SDS011;58309;45.292;11.820;2023-03-09T08:23:37;31.27;;;22.77;;
67721;SDS011;58309;45.292;11.820;2023-03-09T08:26:08;35.08;;;22.25;;
67721;SDS011;58309;45.292;11.820;2023-03-09T08:28:38;41.53;;;27.52;;
67721;SDS011;58309;45.292;11.820;2023-03-09T08:31:04;40.97;;;26.13;;
67721;SDS011;58309;45.292;11.820;2023-03-09T08:33:30;40.15;;;24.95;;
67721;SDS011;58309;45.292;11.820;2023-03-09T08:35:56;32.95;;;21.35;;
67721;SDS011;58309;45.292;11.820;2023-03-09T08:38:21;33.35;;;20.35;;
67721;SDS011;58309;45.292;11.820;2023-03-09T08:40:47;36.28;;;21.67;;
67721;SDS011;58309;45.292;11.820;2023-03-09T08:43:13;37.33;;;22.60;;
67721;SDS011;58309;45.292;11.820;2023-03-09T08:45:39;27.63;;;19.40;;
67721;SDS011;58309;45.292;11.820;2023-03-09T08:48:04;31.38;;;20.75;;
67721;SDS011;58309;45.292;11.820;2023-03-09T08:50:30;28.25;;;17.67;;
67721;SDS011;58309;45.292;11.820;2023-03-09T08:52:56;27.10;;;15.80;;
67721;SDS011;58309;45.292;11.820;2023-03-09T08:55:21;16.45;;;11.25;;
67721;SDS011;58309;45.292;11.820;2023-03-09T08:57:47;17.45;;;11.27;;
67721;SDS011;58309;45.292;11.820;2023-03-09T09:00:13;17.70;;;11.50;;
67721;SDS011;58309;45.292;11.820;2023-03-09T09:02:39;17.98;;;11.30;;
67721;SDS011;58309;45.292;11.820;2023-03-09T09:05:06;18.17;;;11.68;;
67721;SDS011;58309;45.292;11.820;2023-03-09T09:07:32;19.42;;;12.02;;
67721;SDS011;58309;45.292;11.820;2023-03-09T09:09:59;23.23;;;12.18;;
67721;SDS011;58309;45.292;11.820;2023-03-09T09:12:25;17.25;;;11.93;;
67721;SDS011;58309;45.292;11.820;2023-03-09T09:14:53;19.58;;;11.52;;
67721;SDS011;58309;45.292;11.820;2023-03-09T09:17:19;21.02;;;12.80;;
67721;SDS011;58309;45.292;11.820;2023-03-09T09:19:44;16.15;;;10.10;;
67721;SDS011;58309;45.292;11.820;2023-03-09T09:22:10;16.65;;;10.52;;
67721;SDS011;58309;45.292;11.820;2023-03-09T09:24:35;14.73;;;10.27;;
67721;SDS011;58309;45.292;11.820;2023-03-09T09:27:02;15.27;;;11.10;;
67721;SDS011;58309;45.292;11.820;2023-03-09T09:29:35;14.43;;;10.38;;
67721;SDS011;58309;45.292;11.820;2023-03-09T09:32:01;15.20;;;10.30;;
67721;SDS011;58309;45.292;11.820;2023-03-09T09:34:31;16.17;;;10.63;;
67721;SDS011;58309;45.292;11.820;2023-03-09T09:36:58;22.40;;;10.65;;
67721;SDS011;58309;45.292;11.820;2023-03-09T09:42:00;15.63;;;9.13;;
67721;SDS011;58309;45.292;11.820;2023-03-09T09:44:31;17.70;;;10.85;;
67721;SDS011;58309;45.292;11.820;2023-03-09T09:47:01;14.63;;;10.38;;
67721;SDS011;58309;45.292;11.820;2023-03-09T09:49:31;14.82;;;9.98;;
67721;SDS011;58309;45.292;11.820;2023-03-09T09:52:07;11.82;;;7.68;;
67721;SDS011;58309;45.292;11.820;2023-03-09T10:00:09;14.43;;;8.55;;
67721;SDS011;58309;45.292;11.820;2023-03-09T10:11:04;8.20;;;6.63;;
67721;SDS011;58309;45.292;11.820;2023-03-09T10:16:37;9.80;;;6.05;;
67721;SDS011;58309;45.292;11.820;2023-03-09T10:19:08;13.38;;;4.60;;
67721;SDS011;58309;45.292;11.820;2023-03-09T10:21:45;8.13;;;4.30;;
67721;SDS011;58309;45.292;11.820;2023-03-09T10:24:21;11.18;;;4.07;;
67721;SDS011;58309;45.292;11.820;2023-03-09T10:27:22;8.77;;;3.90;;
67721;SDS011;58309;45.292;11.820;2023-03-09T10:29:56;8.95;;;4.22;;
67721;SDS011;58309;45.292;11.820;2023-03-09T10:33:01;13.43;;;5.05;;
67721;SDS011;58309;45.292;11.820;2023-03-09T10:38:17;7.38;;;4.68;;
67721;SDS011;58309;45.292;11.820;2023-03-09T10:40:48;8.73;;;4.45;;
67721;SDS011;58309;45.292;11.820;2023-03-09T10:43:23;14.15;;;4.97;;
67721;SDS011;58309;45.292;11.820;2023-03-09T10:45:49;9.98;;;5.40;;
67721;SDS011;58309;45.292;11.820;2023-03-09T10:48:33;11.98;;;6.15;;
67721;SDS011;58309;45.292;11.820;2023-03-09T10:51:03;10.70;;;5.70;;
67721;SDS011;58309;45.292;11.820;2023-03-09T10:56:29;9.93;;;5.85;;
67721;SDS011;58309;45.292;11.820;2023-03-09T11:01:28;11.05;;;7.03;;
67721;SDS011;58309;45.292;11.820;2023-03-09T11:03:56;10.93;;;7.22;;
67721;SDS011;58309;45.292;11.820;2023-03-09T11:08:54;12.52;;;7.35;;
67721;SDS011;58309;45.292;11.820;2023-03-09T11:11:30;15.48;;;7.68;;
67721;SDS011;58309;45.292;11.820;2023-03-09T11:13:56;10.18;;;6.97;;
67721;SDS011;58309;45.292;11.820;2023-03-09T11:22:01;10.85;;;8.15;;
67721;SDS011;58309;45.292;11.820;2023-03-09T11:24:37;14.80;;;8.77;;
67721;SDS011;58309;45.292;11.820;2023-03-09T11:27:25;15.65;;;9.07;;
67721;SDS011;58309;45.292;11.820;2023-03-09T11:30:14;13.98;;;8.77;;
67721;SDS011;58309;45.292;11.820;2023-03-09T11:32:42;16.20;;;8.70;;
67721;SDS011;58309;45.292;11.820;2023-03-09T11:35:14;17.80;;;9.00;;
67721;SDS011;58309;45.292;11.820;2023-03-09T11:37:45;15.35;;;9.07;;
67721;SDS011;58309;45.292;11.820;2023-03-09T11:40:21;13.73;;;8.65;;
67721;SDS011;58309;45.292;11.820;2023-03-09T11:42:57;13.25;;;8.40;;
67721;SDS011;58309;45.292;11.820;2023-03-09T11:45:25;15.68;;;8.05;;
67721;SDS011;58309;45.292;11.820;2023-03-09T11:50:33;17.05;;;8.43;;
67721;SDS011;58309;45.292;11.820;2023-03-09T11:53:03;14.48;;;7.78;;
67721;SDS011;58309;45.292;11.820;2023-03-09T11:55:35;15.43;;;8.48;;
67721;SDS011;58309;45.292;11.820;2023-03-09T11:58:05;15.43;;;8.20;;
67721;SDS011;58309;45.292;11.820;2023-03-09T12:00:43;13.68;;;7.25;;
67721;SDS011;58309;45.292;11.820;2023-03-09T12:03:13;13.90;;;7.72;;
67721;SDS011;58309;45.292;11.820;2023-03-09T12:05:43;14.00;;;8.52;;
67721;SDS011;58309;45.292;11.820;2023-03-09T12:11:00;12.57;;;6.55;;
67721;SDS011;58309;45.292;11.820;2023-03-09T12:13:48;8.18;;;6.30;;
67721;SDS011;58309;45.292;11.820;2023-03-09T12:16:28;11.57;;;6.18;;
67721;SDS011;58309;45.292;11.820;2023-03-09T12:21:40;9.68;;;6.00;;
67721;SDS011;58309;45.292;11.820;2023-03-09T12:29:32;11.57;;;7.00;;
67721;SDS011;58309;45.292;11.820;2023-03-09T12:34:40;9.38;;;6.57;;
67721;SDS011;58309;45.292;11.820;2023-03-09T12:42:45;11.30;;;6.68;;
67721;SDS011;58309;45.292;11.820;2023-03-09T12:55:46;11.55;;;6.82;;
67721;SDS011;58309;45.292;11.820;2023-03-09T13:00:53;13.32;;;8.98;;
67721;SDS011;58309;45.292;11.820;2023-03-09T13:06:33;12.57;;;7.43;;
67721;SDS011;58309;45.292;11.820;2023-03-09T13:24:39;14.15;;;8.88;;
67721;SDS011;58309;45.292;11.820;2023-03-09T13:29:37;16.52;;;8.35;;
67721;SDS011;58309;45.292;11.820;2023-03-09T13:32:16;22.85;;;9.80;;
67721;SDS011;58309;45.292;11.820;2023-03-09T13:34:46;19.95;;;11.00;;
67721;SDS011;58309;45.292;11.820;2023-03-09T13:37:14;18.02;;;8.68;;
67721;SDS011;58309;45.292;11.820;2023-03-09T13:39:56;12.82;;;8.43;;
67721;SDS011;58309;45.292;11.820;2023-03-09T13:42:32;14.38;;;9.40;;
67721;SDS011;58309;45.292;11.820;2023-03-09T13:45:01;17.88;;;10.45;;
67721;SDS011;58309;45.292;11.820;2023-03-09T13:47:28;16.30;;;9.07;;
67721;SDS011;58309;45.292;11.820;2023-03-09T13:49:56;17.27;;;9.83;;
67721;SDS011;58309;45.292;11.820;2023-03-09T13:52:24;15.00;;;9.57;;
67721;SDS011;58309;45.292;11.820;2023-03-09T13:54:54;16.27;;;9.07;;
67721;SDS011;58309;45.292;11.820;2023-03-09T13:57:23;16.77;;;9.70;;
67721;SDS011;58309;45.292;11.820;2023-03-09T13:59:58;12.80;;;8.23;;
67721;SDS011;58309;45.292;11.820;2023-03-09T14:02:26;17.05;;;9.48;;
67721;SDS011;58309;45.292;11.820;2023-03-09T14:07:25;14.13;;;9.73;;
67721;SDS011;58309;45.292;11.820;2023-03-09T14:09:59;10.90;;;8.15;;
67721;SDS011;58309;45.292;11.820;2023-03-09T14:12:31;14.20;;;8.60;;
67721;SDS011;58309;45.292;11.820;2023-03-09T14:15:00;16.58;;;9.23;;
67721;SDS011;58309;45.292;11.820;2023-03-09T14:17:28;14.52;;;9.43;;
67721;SDS011;58309;45.292;11.820;2023-03-09T14:19:54;15.00;;;9.25;;
67721;SDS011;58309;45.292;11.820;2023-03-09T14:22:22;15.98;;;9.70;;
67721;SDS011;58309;45.292;11.820;2023-03-09T14:24:52;16.10;;;10.38;;
67721;SDS011;58309;45.292;11.820;2023-03-09T14:27:33;14.73;;;10.15;;
67721;SDS011;58309;45.292;11.820;2023-03-09T14:33:30;14.80;;;9.63;;
67721;SDS011;58309;45.292;11.820;2023-03-09T14:38:35;13.93;;;9.52;;
67721;SDS011;58309;45.292;11.820;2023-03-09T14:41:05;15.43;;;10.20;;
67721;SDS011;58309;45.292;11.820;2023-03-09T14:43:45;16.60;;;10.57;;
67721;SDS011;58309;45.292;11.820;2023-03-09T14:46:32;19.02;;;10.68;;
67721;SDS011;58309;45.292;11.820;2023-03-09T14:48:57;17.20;;;10.05;;
67721;SDS011;58309;45.292;11.820;2023-03-09T14:51:35;16.77;;;10.50;;
67721;SDS011;58309;45.292;11.820;2023-03-09T14:54:02;14.43;;;9.52;;
67721;SDS011;58309;45.292;11.820;2023-03-09T14:56:38;16.27;;;9.52;;
67721;SDS011;58309;45.292;11.820;2023-03-09T14:59:11;15.10;;;9.38;;
67721;SDS011;58309;45.292;11.820;2023-03-09T15:01:42;13.88;;;9.35;;
67721;SDS011;58309;45.292;11.820;2023-03-09T15:04:17;20.60;;;9.30;;
67721;SDS011;58309;45.292;11.820;2023-03-09T15:06:44;15.10;;;8.95;;
67721;SDS011;58309;45.292;11.820;2023-03-09T15:09:11;13.00;;;9.07;;
67721;SDS011;58309;45.292;11.820;2023-03-09T15:11:38;12.23;;;9.00;;
67721;SDS011;58309;45.292;11.820;2023-03-09T15:14:09;13.75;;;9.23;;
67721;SDS011;58309;45.292;11.820;2023-03-09T15:16:39;19.00;;;9.55;;
67721;SDS011;58309;45.292;11.820;2023-03-09T15:19:05;14.45;;;8.80;;
67721;SDS011;58309;45.292;11.820;2023-03-09T15:21:30;15.77;;;8.63;;
67721;SDS011;58309;45.292;11.820;2023-03-09T15:23:56;20.25;;;10.52;;
67721;SDS011;58309;45.292;11.820;2023-03-09T15:26:21;16.10;;;9.98;;
67721;SDS011;58309;45.292;11.820;2023-03-09T15:28:47;17.63;;;9.40;;
67721;SDS011;58309;45.292;11.820;2023-03-09T15:31:12;25.08;;;17.48;;
67721;SDS011;58309;45.292;11.820;2023-03-09T15:33:38;25.48;;;19.33;;
67721;SDS011;58309;45.292;11.820;2023-03-09T15:36:07;31.45;;;21.48;;
67721;SDS011;58309;45.292;11.820;2023-03-09T15:38:33;32.60;;;21.42;;
67721;SDS011;58309;45.292;11.820;2023-03-09T15:40:58;32.88;;;21.85;;
67721;SDS011;58309;45.292;11.820;2023-03-09T15:43:24;35.92;;;23.40;;
67721;SDS011;58309;45.292;11.820;2023-03-09T15:45:50;33.00;;;21.90;;
67721;SDS011;58309;45.292;11.820;2023-03-09T15:48:15;33.42;;;23.13;;
67721;SDS011;58309;45.292;11.820;2023-03-09T15:50:47;33.63;;;21.88;;
67721;SDS011;58309;45.292;11.820;2023-03-09T15:53:14;34.88;;;24.10;;
67721;SDS011;58309;45.292;11.820;2023-03-09T15:55:39;35.42;;;24.95;;
67721;SDS011;58309;45.292;11.820;2023-03-09T15:58:07;36.38;;;23.77;;
67721;SDS011;58309;45.292;11.820;2023-03-09T16:00:32;37.15;;;23.15;;
67721;SDS011;58309;45.292;11.820;2023-03-09T16:03:01;38.60;;;23.75;;
67721;SDS011;58309;45.292;11.820;2023-03-09T16:07:54;38.90;;;24.83;;
67721;SDS011;58309;45.292;11.820;2023-03-09T16:10:19;38.10;;;24.10;;
67721;SDS011;58309;45.292;11.820;2023-03-09T16:12:45;39.92;;;23.80;;
67721;SDS011;58309;45.292;11.820;2023-03-09T16:15:11;33.45;;;23.35;;